sensor_id;sensor_type;location;lat;lon;timestamp;pressure;altitude;pressure_sealevel;temperature;humidity
49515;BME280;35415;47.870;16.058;2023-04-25T00:00:51;96440.44;;;9.92;73.96
49515;BME280;35415;47.870;16.058;2023-04-25T00:03:19;96467.41;;;10.11;73.85
49515;BME280;35415;47.870;16.058;2023-04-25T00:05:47;96376.59;;;9.55;73.99
49515;BME280;35415;47.870;16.058;2023-04-25T00:08:14;96497.81;;;10.35;74.04
49515;BME280;35415;47.870;16.058;2023-04-25T00:10:44;96387.53;;;9.63;73.65
49515;BME280;35415;47.870;16.058;2023-04-25T00:13:11;96459.66;;;10.04;73.49
49515;BME280;35415;47.870;16.058;2023-04-25T00:15:39;96494.44;;;10.24;73.67
49515;BME280;35415;47.870;16.058;2023-04-25T00:18:08;96546.34;;;10.49;73.98
49515;BME280;35415;47.870;16.058;2023-04-25T00:20:36;96482.53;;;10.02;74.10
49515;BME280;35415;47.870;16.058;2023-04-25T00:23:05;96540.41;;;10.52;74.07
49515;BME280;35415;47.870;16.058;2023-04-25T00:25:33;96544.97;;;10.51;73.96
49515;BME280;35415;47.870;16.058;2023-04-25T00:28:00;96422.94;;;9.65;74.27
49515;BME280;35415;47.870;16.058;2023-04-25T00:30:27;96534.78;;;10.48;74.31
49515;BME280;35415;47.870;16.058;2023-04-25T00:32:54;96546.81;;;10.56;74.37
49515;BME280;35415;47.870;16.058;2023-04-25T00:35:22;96458.84;;;10.04;73.76
49515;BME280;35415;47.870;16.058;2023-04-25T00:37:52;96482.63;;;10.20;74.40
49515;BME280;35415;47.870;16.058;2023-04-25T00:40:19;96404.38;;;9.69;73.86
49515;BME280;35415;47.870;16.058;2023-04-25T00:42:46;96467.72;;;10.04;74.46
49515;BME280;35415;47.870;16.058;2023-04-25T00:45:14;96350.50;;;9.31;73.98
49515;BME280;35415;47.870;16.058;2023-04-25T00:47:42;96450.81;;;10.04;74.21
49515;BME280;35415;47.870;16.058;2023-04-25T00:50:10;96525.44;;;10.41;74.20
49515;BME280;35415;47.870;16.058;2023-04-25T00:52:40;96430.59;;;9.82;74.06
49515;BME280;35415;47.870;16.058;2023-04-25T00:55:09;96464.75;;;10.06;73.95
49515;BME280;35415;47.870;16.058;2023-04-25T00:57:37;96471.47;;;10.08;74.18
49515;BME280;35415;47.870;16.058;2023-04-25T01:00:06;96456.28;;;9.93;74.11
49515;BME280;35415;47.870;16.058;2023-04-25T01:02:37;96538.84;;;10.46;73.85
49515;BME280;35415;47.870;16.058;2023-04-25T01:05:05;96434.41;;;9.76;74.38
49515;BME280;35415;47.870;16.058;2023-04-25T01:07:32;96463.78;;;9.97;74.13
49515;BME280;35415;47.870;16.058;2023-04-25T01:10:04;96406.63;;;9.62;74.10
49515;BME280;35415;47.870;16.058;2023-04-25T01:12:34;96358.59;;;9.26;73.87
49515;BME280;35415;47.870;16.058;2023-04-25T01:15:02;96435.25;;;9.72;74.07
49515;BME280;35415;47.870;16.058;2023-04-25T01:17:41;96370.03;;;9.37;74.06
49515;BME280;35415;47.870;16.058;2023-04-25T01:20:13;96534.38;;;10.36;74.16
49515;BME280;35415;47.870;16.058;2023-04-25T01:22:43;96522.00;;;10.35;74.35
49515;BME280;35415;47.870;16.058;2023-04-25T01:25:11;96380.25;;;9.35;74.09
49515;BME280;35415;47.870;16.058;2023-04-25T01:27:40;96521.03;;;10.26;74.22
49515;BME280;35415;47.870;16.058;2023-04-25T01:30:08;96457.41;;;9.87;73.72
49515;BME280;35415;47.870;16.058;2023-04-25T01:32:36;96539.81;;;10.31;73.92
49515;BME280;35415;47.870;16.058;2023-04-25T01:35:09;96353.31;;;9.16;73.88
49515;BME280;35415;47.870;16.058;2023-04-25T01:37:37;96535.75;;;10.34;74.10
49515;BME280;35415;47.870;16.058;2023-04-25T01:42:41;96529.66;;;10.23;74.37
49515;BME280;35415;47.870;16.058;2023-04-25T01:45:09;96438.78;;;9.67;74.56
49515;BME280;35415;47.870;16.058;2023-04-25T01:47:37;96396.88;;;9.37;74.18
49515;BME280;35415;47.870;16.058;2023-04-25T01:50:10;96454.53;;;9.79;74.49
49515;BME280;35415;47.870;16.058;2023-04-25T01:52:38;96416.16;;;9.44;74.34
49515;BME280;35415;47.870;16.058;2023-04-25T01:55:06;96528.59;;;10.19;74.39
49515;BME280;35415;47.870;16.058;2023-04-25T01:57:38;96466.13;;;9.74;74.23
49515;BME280;35415;47.870;16.058;2023-04-25T02:00:09;96497.09;;;9.95;74.47
49515;BME280;35415;47.870;16.058;2023-04-25T02:02:36;96462.06;;;9.77;74.32
49515;BME280;35415;47.870;16.058;2023-04-25T02:05:04;96534.03;;;10.14;74.12
49515;BME280;35415;47.870;16.058;2023-04-25T02:07:32;96520.09;;;10.07;73.91
49515;BME280;35415;47.870;16.058;2023-04-25T02:09:59;96365.97;;;9.11;74.04
49515;BME280;35415;47.870;16.058;2023-04-25T02:12:29;96521.16;;;10.06;74.19
49515;BME280;35415;47.870;16.058;2023-04-25T02:14:57;96510.53;;;9.95;74.30
49515;BME280;35415;47.870;16.058;2023-04-25T02:17:25;96519.63;;;10.00;74.24
49515;BME280;35415;47.870;16.058;2023-04-25T02:19:55;96447.75;;;9.52;74.25
49515;BME280;35415;47.870;16.058;2023-04-25T02:22:22;96526.09;;;9.99;74.43
49515;BME280;35415;47.870;16.058;2023-04-25T02:24:49;96519.97;;;9.88;74.44
49515;BME280;35415;47.870;16.058;2023-04-25T02:27:16;96517.00;;;9.89;74.38
49515;BME280;35415;47.870;16.058;2023-04-25T02:29:44;96507.34;;;9.88;74.19
49515;BME280;35415;47.870;16.058;2023-04-25T02:32:12;96514.09;;;9.86;74.17
49515;BME280;35415;47.870;16.058;2023-04-25T02:34:39;96511.97;;;9.83;74.44
49515;BME280;35415;47.870;16.058;2023-04-25T02:37:06;96511.16;;;9.82;74.31
49515;BME280;35415;47.870;16.058;2023-04-25T02:39:37;96460.34;;;9.57;74.41
49515;BME280;35415;47.870;16.058;2023-04-25T02:42:04;96496.19;;;9.76;74.65
49515;BME280;35415;47.870;16.058;2023-04-25T02:44:31;96502.09;;;9.73;74.26
49515;BME280;35415;47.870;16.058;2023-04-25T02:46:58;96492.44;;;9.72;74.33
49515;BME280;35415;47.870;16.058;2023-04-25T02:49:26;96503.47;;;9.71;74.58
49515;BME280;35415;47.870;16.058;2023-04-25T02:51:53;96495.44;;;9.65;74.45
49515;BME280;35415;47.870;16.058;2023-04-25T02:54:20;96485.56;;;9.61;74.63
49515;BME280;35415;47.870;16.058;2023-04-25T02:56:47;96455.63;;;9.39;74.66
49515;BME280;35415;47.870;16.058;2023-04-25T02:59:15;96498.47;;;9.59;75.12
49515;BME280;35415;47.870;16.058;2023-04-25T03:01:42;96497.66;;;9.58;75.02
49515;BME280;35415;47.870;16.058;2023-04-25T03:04:09;96490.69;;;9.57;74.99
49515;BME280;35415;47.870;16.058;2023-04-25T03:06:38;96496.88;;;9.53;75.11
49515;BME280;35415;47.870;16.058;2023-04-25T03:09:09;96501.72;;;9.51;75.35
49515;BME280;35415;47.870;16.058;2023-04-25T03:11:38;96455.47;;;9.25;75.38
49515;BME280;35415;47.870;16.058;2023-04-25T03:14:09;96501.50;;;9.47;75.38
49515;BME280;35415;47.870;16.058;2023-04-25T03:16:36;96475.06;;;9.25;75.25
49515;BME280;35415;47.870;16.058;2023-04-25T03:19:03;96507.69;;;9.43;75.46
49515;BME280;35415;47.870;16.058;2023-04-25T03:21:35;96505.59;;;9.34;75.38
49515;BME280;35415;47.870;16.058;2023-04-25T03:24:04;96514.97;;;9.37;75.54
49515;BME280;35415;47.870;16.058;2023-04-25T03:26:36;96518.50;;;9.32;75.63
49515;BME280;35415;47.870;16.058;2023-04-25T03:29:03;96519.53;;;9.37;75.51
49515;BME280;35415;47.870;16.058;2023-04-25T03:31:34;96481.31;;;9.11;75.60
49515;BME280;35415;47.870;16.058;2023-04-25T03:34:01;96522.78;;;9.33;75.54
49515;BME280;35415;47.870;16.058;2023-04-25T03:36:28;96520.38;;;9.32;75.89
49515;BME280;35415;47.870;16.058;2023-04-25T03:38:55;96519.31;;;9.28;75.90
49515;BME280;35415;47.870;16.058;2023-04-25T03:41:23;96511.56;;;9.21;76.23
49515;BME280;35415;47.870;16.058;2023-04-25T03:43:50;96504.88;;;9.24;76.03
49515;BME280;35415;47.870;16.058;2023-04-25T03:46:17;96517.44;;;9.23;76.11
49515;BME280;35415;47.870;16.058;2023-04-25T03:48:44;96521.22;;;9.22;76.37
49515;BME280;35415;47.870;16.058;2023-04-25T03:51:11;96492.34;;;9.09;76.40
49515;BME280;35415;47.870;16.058;2023-04-25T03:53:39;96524.47;;;9.19;76.62
49515;BME280;35415;47.870;16.058;2023-04-25T03:56:06;96525.81;;;9.17;76.85
49515;BME280;35415;47.870;16.058;2023-04-25T03:58:36;96489.44;;;8.95;76.81
49515;BME280;35415;47.870;16.058;2023-04-25T04:01:03;96486.53;;;8.92;76.78
49515;BME280;35415;47.870;16.058;2023-04-25T04:03:33;96535.22;;;9.14;77.10
49515;BME280;35415;47.870;16.058;2023-04-25T04:06:01;96475.81;;;8.82;76.90
49515;BME280;35415;47.870;16.058;2023-04-25T04:08:29;96526.13;;;9.10;76.85
49515;BME280;35415;47.870;16.058;2023-04-25T04:10:57;96525.06;;;9.11;76.96
49515;BME280;35415;47.870;16.058;2023-04-25T04:13:25;96523.16;;;9.07;77.05
49515;BME280;35415;47.870;16.058;2023-04-25T04:15:53;96530.69;;;9.04;77.50
49515;BME280;35415;47.870;16.058;2023-04-25T04:18:21;96533.94;;;9.01;77.64
49515;BME280;35415;47.870;16.058;2023-04-25T04:20:48;96536.88;;;9.00;77.89
49515;BME280;35415;47.870;16.058;2023-04-25T04:23:15;96533.41;;;8.99;77.89
49515;BME280;35415;47.870;16.058;2023-04-25T04:25:42;96531.81;;;8.98;77.95
49515;BME280;35415;47.870;16.058;2023-04-25T04:28:09;96527.78;;;8.96;78.02
49515;BME280;35415;47.870;16.058;2023-04-25T04:30:37;96537.44;;;8.97;77.73
49515;BME280;35415;47.870;16.058;2023-04-25T04:33:06;96534.75;;;8.97;77.96
49515;BME280;35415;47.870;16.058;2023-04-25T04:35:33;96550.34;;;8.95;78.04
49515;BME280;35415;47.870;16.058;2023-04-25T04:38:00;96514.47;;;8.70;77.52
49515;BME280;35415;47.870;16.058;2023-04-25T04:40:27;96548.22;;;8.92;78.31
49515;BME280;35415;47.870;16.058;2023-04-25T04:42:56;96548.75;;;8.84;78.17
49515;BME280;35415;47.870;16.058;2023-04-25T04:45:23;96514.25;;;8.62;78.49
49515;BME280;35415;47.870;16.058;2023-04-25T04:47:50;96507.56;;;8.54;78.56
49515;BME280;35415;47.870;16.058;2023-04-25T04:50:19;96563.50;;;8.86;78.86
49515;BME280;35415;47.870;16.058;2023-04-25T04:52:47;96434.78;;;8.06;78.74
49515;BME280;35415;47.870;16.058;2023-04-25T04:55:14;96448.72;;;8.08;78.86
49515;BME280;35415;47.870;16.058;2023-04-25T04:57:41;96362.84;;;7.64;79.38
49515;BME280;35415;47.870;16.058;2023-04-25T05:00:10;96441.72;;;8.12;79.13
49515;BME280;35415;47.870;16.058;2023-04-25T05:02:38;96540.75;;;8.79;79.31
49515;BME280;35415;47.870;16.058;2023-04-25T05:05:05;96512.38;;;8.52;79.17
49515;BME280;35415;47.870;16.058;2023-04-25T05:07:44;96378.91;;;7.74;78.97
49515;BME280;35415;47.870;16.058;2023-04-25T05:10:12;96424.09;;;7.96;79.31
49515;BME280;35415;47.870;16.058;2023-04-25T05:12:39;96440.63;;;8.19;79.23
49515;BME280;35415;47.870;16.058;2023-04-25T05:15:07;96388.25;;;7.77;78.86
49515;BME280;35415;47.870;16.058;2023-04-25T05:17:35;96480.50;;;8.51;78.88
49515;BME280;35415;47.870;16.058;2023-04-25T05:20:06;96501.91;;;8.66;78.71
49515;BME280;35415;47.870;16.058;2023-04-25T05:22:34;96525.16;;;8.86;78.79
49515;BME280;35415;47.870;16.058;2023-04-25T05:25:03;96534.78;;;8.92;78.65
49515;BME280;35415;47.870;16.058;2023-04-25T05:27:31;96464.38;;;8.56;78.79
49515;BME280;35415;47.870;16.058;2023-04-25T05:30:00;96456.88;;;8.63;78.61
49515;BME280;35415;47.870;16.058;2023-04-25T05:32:27;96425.34;;;8.34;78.27
49515;BME280;35415;47.870;16.058;2023-04-25T05:34:54;96499.94;;;8.87;78.13
49515;BME280;35415;47.870;16.058;2023-04-25T05:37:22;96480.38;;;8.81;77.55
49515;BME280;35415;47.870;16.058;2023-04-25T05:39:49;96427.66;;;8.56;77.29
49515;BME280;35415;47.870;16.058;2023-04-25T05:42:17;96463.19;;;8.87;77.89
49515;BME280;35415;47.870;16.058;2023-04-25T05:44:47;96354.66;;;8.15;77.42
49515;BME280;35415;47.870;16.058;2023-04-25T05:47:14;96521.94;;;9.38;77.45
49515;BME280;35415;47.870;16.058;2023-04-25T05:49:41;96339.09;;;8.27;77.40
49515;BME280;35415;47.870;16.058;2023-04-25T05:52:09;96417.69;;;8.72;77.60
49515;BME280;35415;47.870;16.058;2023-04-25T05:54:36;96428.84;;;8.89;76.88
49515;BME280;35415;47.870;16.058;2023-04-25T05:57:03;96323.25;;;8.31;75.96
49515;BME280;35415;47.870;16.058;2023-04-25T05:59:34;96538.66;;;9.69;76.39
49515;BME280;35415;47.870;16.058;2023-04-25T06:02:05;96457.84;;;9.31;75.79
49515;BME280;35415;47.870;16.058;2023-04-25T06:04:32;96463.97;;;9.42;75.92
49515;BME280;35415;47.870;16.058;2023-04-25T06:07:00;96447.94;;;9.27;76.56
49515;BME280;35415;47.870;16.058;2023-04-25T06:09:27;96452.94;;;9.39;75.11
49515;BME280;35415;47.870;16.058;2023-04-25T06:11:54;96443.81;;;9.45;75.02
49515;BME280;35415;47.870;16.058;2023-04-25T06:14:21;96509.44;;;9.97;75.78
49515;BME280;35415;47.870;16.058;2023-04-25T06:16:50;96436.44;;;9.55;74.64
49515;BME280;35415;47.870;16.058;2023-04-25T06:19:18;96350.38;;;9.13;74.72
49515;BME280;35415;47.870;16.058;2023-04-25T06:21:51;96355.66;;;9.23;74.11
49515;BME280;35415;47.870;16.058;2023-04-25T06:24:33;96388.94;;;9.56;73.25
49515;BME280;35415;47.870;16.058;2023-04-25T06:27:11;96387.31;;;9.55;73.66
49515;BME280;35415;47.870;16.058;2023-04-25T06:29:41;96451.00;;;10.12;72.98
49515;BME280;35415;47.870;16.058;2023-04-25T06:32:10;96335.56;;;9.49;73.10
49515;BME280;35415;47.870;16.058;2023-04-25T06:34:41;96508.84;;;10.63;72.86
49515;BME280;35415;47.870;16.058;2023-04-25T06:37:08;96387.75;;;9.96;72.49
49515;BME280;35415;47.870;16.058;2023-04-25T06:39:35;96417.91;;;10.17;71.55
49515;BME280;35415;47.870;16.058;2023-04-25T06:42:03;96347.25;;;9.92;71.79
49515;BME280;35415;47.870;16.058;2023-04-25T06:44:30;96491.53;;;10.93;71.86
49515;BME280;35415;47.870;16.058;2023-04-25T06:46:59;96390.81;;;10.37;70.58
49515;BME280;35415;47.870;16.058;2023-04-25T06:49:31;96399.34;;;10.44;70.30
49515;BME280;35415;47.870;16.058;2023-04-25T06:51:58;96485.59;;;11.14;70.32
49515;BME280;35415;47.870;16.058;2023-04-25T06:54:26;96400.75;;;10.61;70.51
49515;BME280;35415;47.870;16.058;2023-04-25T06:56:55;96431.56;;;10.92;70.35
49515;BME280;35415;47.870;16.058;2023-04-25T06:59:23;96342.88;;;10.44;69.65
49515;BME280;35415;47.870;16.058;2023-04-25T07:01:50;96417.50;;;10.95;69.93
49515;BME280;35415;47.870;16.058;2023-04-25T07:04:18;96350.09;;;10.68;68.20
49515;BME280;35415;47.870;16.058;2023-04-25T07:06:47;96410.75;;;11.17;67.46
49515;BME280;35415;47.870;16.058;2023-04-25T07:09:17;96458.75;;;11.47;67.95
49515;BME280;35415;47.870;16.058;2023-04-25T07:11:47;96317.81;;;10.68;67.60
49515;BME280;35415;47.870;16.058;2023-04-25T07:14:14;96480.41;;;11.74;67.30
49515;BME280;35415;47.870;16.058;2023-04-25T07:16:42;96468.81;;;11.74;65.68
49515;BME280;35415;47.870;16.058;2023-04-25T07:19:09;96411.59;;;11.50;66.40
49515;BME280;35415;47.870;16.058;2023-04-25T07:21:40;96406.91;;;11.55;65.54
49515;BME280;35415;47.870;16.058;2023-04-25T07:24:13;96389.34;;;11.44;65.03
49515;BME280;35415;47.870;16.058;2023-04-25T07:26:40;96433.78;;;11.74;65.55
49515;BME280;35415;47.870;16.058;2023-04-25T07:29:09;96474.88;;;12.17;65.44
49515;BME280;35415;47.870;16.058;2023-04-25T07:31:36;96383.09;;;11.62;60.16
49515;BME280;35415;47.870;16.058;2023-04-25T07:34:03;96352.03;;;11.51;57.09
49515;BME280;35415;47.870;16.058;2023-04-25T07:36:34;96411.44;;;11.73;55.57
49515;BME280;35415;47.870;16.058;2023-04-25T07:39:01;96410.41;;;11.88;55.25
49515;BME280;35415;47.870;16.058;2023-04-25T07:41:30;96476.06;;;12.25;54.77
49515;BME280;35415;47.870;16.058;2023-04-25T07:43:57;96371.94;;;11.69;54.99
49515;BME280;35415;47.870;16.058;2023-04-25T07:46:24;96312.31;;;11.29;53.93
49515;BME280;35415;47.870;16.058;2023-04-25T07:48:52;96385.47;;;11.83;54.04
49515;BME280;35415;47.870;16.058;2023-04-25T07:51:19;96403.88;;;11.94;54.00
49515;BME280;35415;47.870;16.058;2023-04-25T07:53:48;96417.63;;;12.07;53.27
49515;BME280;35415;47.870;16.058;2023-04-25T07:56:15;96460.72;;;12.39;53.40
49515;BME280;35415;47.870;16.058;2023-04-25T07:58:52;96459.84;;;12.44;53.77
49515;BME280;35415;47.870;16.058;2023-04-25T08:01:21;96429.06;;;12.31;53.34
49515;BME280;35415;47.870;16.058;2023-04-25T08:03:49;96463.94;;;12.55;52.79
49515;BME280;35415;47.870;16.058;2023-04-25T08:06:16;96451.97;;;12.61;52.21
49515;BME280;35415;47.870;16.058;2023-04-25T08:08:50;96458.84;;;12.67;51.67
49515;BME280;35415;47.870;16.058;2023-04-25T08:11:18;96435.66;;;12.52;49.49
49515;BME280;35415;47.870;16.058;2023-04-25T08:13:47;96484.72;;;12.68;49.23
49515;BME280;35415;47.870;16.058;2023-04-25T08:16:15;96418.88;;;12.42;49.89
49515;BME280;35415;47.870;16.058;2023-04-25T08:18:42;96439.97;;;12.67;51.04
49515;BME280;35415;47.870;16.058;2023-04-25T08:21:13;96420.28;;;12.53;51.07
49515;BME280;35415;47.870;16.058;2023-04-25T08:23:40;96431.38;;;12.65;49.15
49515;BME280;35415;47.870;16.058;2023-04-25T08:26:08;96417.75;;;12.70;49.61
49515;BME280;35415;47.870;16.058;2023-04-25T08:28:35;96443.81;;;12.88;50.12
49515;BME280;35415;47.870;16.058;2023-04-25T08:31:04;96393.28;;;12.67;49.81
49515;BME280;35415;47.870;16.058;2023-04-25T08:33:32;96382.88;;;12.74;49.56
49515;BME280;35415;47.870;16.058;2023-04-25T08:35:59;96421.59;;;13.05;49.84
49515;BME280;35415;47.870;16.058;2023-04-25T08:38:26;96458.19;;;13.25;50.46
49515;BME280;35415;47.870;16.058;2023-04-25T08:40:54;96444.78;;;13.34;48.42
49515;BME280;35415;47.870;16.058;2023-04-25T08:43:23;96446.94;;;13.45;49.16
49515;BME280;35415;47.870;16.058;2023-04-25T08:45:53;96417.31;;;13.40;48.62
49515;BME280;35415;47.870;16.058;2023-04-25T08:48:24;96433.88;;;13.61;45.89
49515;BME280;35415;47.870;16.058;2023-04-25T08:50:55;96425.78;;;13.61;46.57
49515;BME280;35415;47.870;16.058;2023-04-25T08:53:27;96290.59;;;12.85;45.97
49515;BME280;35415;47.870;16.058;2023-04-25T08:55:56;96387.50;;;13.45;44.72
49515;BME280;35415;47.870;16.058;2023-04-25T08:58:23;96445.72;;;13.96;44.29
49515;BME280;35415;47.870;16.058;2023-04-25T09:00:51;96436.06;;;14.04;44.00
49515;BME280;35415;47.870;16.058;2023-04-25T09:03:19;96357.69;;;13.59;43.64
49515;BME280;35415;47.870;16.058;2023-04-25T09:05:47;96310.75;;;13.24;43.54
49515;BME280;35415;47.870;16.058;2023-04-25T09:08:15;96435.91;;;14.09;43.08
49515;BME280;35415;47.870;16.058;2023-04-25T09:10:42;96442.53;;;14.25;42.21
49515;BME280;35415;47.870;16.058;2023-04-25T09:13:11;96402.66;;;14.08;42.66
49515;BME280;35415;47.870;16.058;2023-04-25T09:15:50;96442.59;;;14.42;41.98
49515;BME280;35415;47.870;16.058;2023-04-25T09:18:24;96396.34;;;14.13;41.83
49515;BME280;35415;47.870;16.058;2023-04-25T09:20:54;96464.31;;;14.51;41.48
49515;BME280;35415;47.870;16.058;2023-04-25T09:23:22;96470.06;;;14.50;41.97
49515;BME280;35415;47.870;16.058;2023-04-25T09:25:52;96465.44;;;14.50;42.34
49515;BME280;35415;47.870;16.058;2023-04-25T09:28:26;96463.44;;;14.42;41.50
49515;BME280;35415;47.870;16.058;2023-04-25T09:30:55;96448.00;;;14.42;41.66
49515;BME280;35415;47.870;16.058;2023-04-25T09:33:30;96453.09;;;14.35;41.73
49515;BME280;35415;47.870;16.058;2023-04-25T09:36:04;96437.09;;;14.17;42.05
49515;BME280;35415;47.870;16.058;2023-04-25T09:38:40;96447.97;;;14.34;40.58
49515;BME280;35415;47.870;16.058;2023-04-25T09:41:07;96462.63;;;14.33;41.36
49515;BME280;35415;47.870;16.058;2023-04-25T09:43:35;96426.56;;;14.15;39.87
49515;BME280;35415;47.870;16.058;2023-04-25T09:46:04;96451.94;;;14.28;39.35
49515;BME280;35415;47.870;16.058;2023-04-25T09:48:34;96448.41;;;14.27;39.95
49515;BME280;35415;47.870;16.058;2023-04-25T09:51:07;96453.34;;;14.25;41.37
49515;BME280;35415;47.870;16.058;2023-04-25T09:53:36;96446.72;;;14.31;40.27
49515;BME280;35415;47.870;16.058;2023-04-25T09:56:06;96424.66;;;14.15;39.31
49515;BME280;35415;47.870;16.058;2023-04-25T09:58:34;96441.16;;;14.36;39.84
49515;BME280;35415;47.870;16.058;2023-04-25T10:01:03;96441.22;;;14.45;41.26
49515;BME280;35415;47.870;16.058;2023-04-25T10:03:32;96437.44;;;14.55;38.60
49515;BME280;35415;47.870;16.058;2023-04-25T10:06:00;96397.88;;;14.36;39.40
49515;BME280;35415;47.870;16.058;2023-04-25T10:08:32;96438.66;;;14.80;40.02
49515;BME280;35415;47.870;16.058;2023-04-25T10:11:00;96420.50;;;14.89;36.96
49515;BME280;35415;47.870;16.058;2023-04-25T10:13:29;96423.41;;;15.01;36.34
49515;BME280;35415;47.870;16.058;2023-04-25T10:16:01;96387.06;;;14.85;36.73
49515;BME280;35415;47.870;16.058;2023-04-25T10:18:32;96408.56;;;15.07;36.34
49515;BME280;35415;47.870;16.058;2023-04-25T10:21:01;96282.28;;;14.20;36.98
49515;BME280;35415;47.870;16.058;2023-04-25T10:23:31;96269.84;;;14.10;37.22
49515;BME280;35415;47.870;16.058;2023-04-25T10:26:00;96432.63;;;15.09;37.56
49515;BME280;35415;47.870;16.058;2023-04-25T10:28:28;96292.28;;;14.10;37.62
49515;BME280;35415;47.870;16.058;2023-04-25T10:30:59;96368.66;;;14.47;37.80
49515;BME280;35415;47.870;16.058;2023-04-25T10:33:32;96354.22;;;14.21;38.87
49515;BME280;35415;47.870;16.058;2023-04-25T10:36:09;96450.88;;;14.77;40.38
49515;BME280;35415;47.870;16.058;2023-04-25T10:38:37;96328.88;;;13.77;41.79
49515;BME280;35415;47.870;16.058;2023-04-25T10:41:06;96474.97;;;14.48;43.05
49515;BME280;35415;47.870;16.058;2023-04-25T10:43:38;96478.56;;;14.43;43.91
49515;BME280;35415;47.870;16.058;2023-04-25T10:46:22;96488.25;;;14.35;44.91
49515;BME280;35415;47.870;16.058;2023-04-25T10:48:50;96481.16;;;14.17;45.55
49515;BME280;35415;47.870;16.058;2023-04-25T10:51:20;96490.00;;;14.09;46.08
49515;BME280;35415;47.870;16.058;2023-04-25T10:53:58;96477.53;;;13.99;46.32
49515;BME280;35415;47.870;16.058;2023-04-25T10:56:28;96473.97;;;13.90;46.11
49515;BME280;35415;47.870;16.058;2023-04-25T10:59:06;96444.28;;;13.76;45.79
49515;BME280;35415;47.870;16.058;2023-04-25T11:01:37;96455.00;;;13.81;45.84
49515;BME280;35415;47.870;16.058;2023-04-25T11:04:05;96444.91;;;13.73;45.61
49515;BME280;35415;47.870;16.058;2023-04-25T11:06:42;96426.44;;;13.67;46.36
49515;BME280;35415;47.870;16.058;2023-04-25T11:09:18;96438.78;;;13.81;47.28
49515;BME280;35415;47.870;16.058;2023-04-25T11:11:53;96443.50;;;13.98;47.34
49515;BME280;35415;47.870;16.058;2023-04-25T11:14:22;96430.81;;;14.07;47.22
49515;BME280;35415;47.870;16.058;2023-04-25T11:16:52;96419.09;;;14.12;46.46
49515;BME280;35415;47.870;16.058;2023-04-25T11:19:22;96430.00;;;14.29;44.20
49515;BME280;35415;47.870;16.058;2023-04-25T11:21:50;96426.09;;;14.44;44.66
49515;BME280;35415;47.870;16.058;2023-04-25T11:24:27;96408.44;;;14.47;44.20
49515;BME280;35415;47.870;16.058;2023-04-25T11:26:56;96384.69;;;14.43;41.73
49515;BME280;35415;47.870;16.058;2023-04-25T11:29:26;96408.88;;;14.80;42.81
49515;BME280;35415;47.870;16.058;2023-04-25T11:31:54;96412.22;;;14.85;43.61
49515;BME280;35415;47.870;16.058;2023-04-25T11:34:27;96418.94;;;14.96;43.57
49515;BME280;35415;47.870;16.058;2023-04-25T11:36:56;96416.38;;;15.00;42.66
49515;BME280;35415;47.870;16.058;2023-04-25T11:39:31;96415.09;;;14.89;44.16
49515;BME280;35415;47.870;16.058;2023-04-25T11:41:57;96439.81;;;15.04;47.58
49515;BME280;35415;47.870;16.058;2023-04-25T11:44:30;96425.59;;;14.90;45.95
49515;BME280;35415;47.870;16.058;2023-04-25T11:46:58;96447.28;;;14.99;46.95
49515;BME280;35415;47.870;16.058;2023-04-25T11:49:30;96431.66;;;14.87;46.12
49515;BME280;35415;47.870;16.058;2023-04-25T11:51:57;96454.41;;;14.86;48.38
49515;BME280;35415;47.870;16.058;2023-04-25T11:54:24;96464.13;;;14.79;47.04
49515;BME280;35415;47.870;16.058;2023-04-25T11:56:59;96497.69;;;14.69;47.17
49515;BME280;35415;47.870;16.058;2023-04-25T11:59:27;96407.66;;;13.93;45.47
49515;BME280;35415;47.870;16.058;2023-04-25T12:01:54;96479.25;;;14.18;46.51
49515;BME280;35415;47.870;16.058;2023-04-25T12:04:24;96508.84;;;14.23;47.09
49515;BME280;35415;47.870;16.058;2023-04-25T12:06:53;96531.84;;;13.89;50.77
49515;BME280;35415;47.870;16.058;2023-04-25T12:09:28;96540.56;;;13.64;55.04
49515;BME280;35415;47.870;16.058;2023-04-25T12:11:57;96556.00;;;13.36;55.17
49515;BME280;35415;47.870;16.058;2023-04-25T12:14:29;96547.00;;;12.99;56.80
49515;BME280;35415;47.870;16.058;2023-04-25T12:16:58;96544.88;;;12.69;58.02
49515;BME280;35415;47.870;16.058;2023-04-25T12:19:26;96461.41;;;11.85;59.23
49515;BME280;35415;47.870;16.058;2023-04-25T12:21:53;96526.06;;;12.03;62.09
49515;BME280;35415;47.870;16.058;2023-04-25T12:24:22;96541.22;;;11.99;61.65
49515;BME280;35415;47.870;16.058;2023-04-25T12:26:52;96527.19;;;11.84;63.28
49515;BME280;35415;47.870;16.058;2023-04-25T12:29:23;96520.69;;;11.66;63.15
49515;BME280;35415;47.870;16.058;2023-04-25T12:31:51;96517.13;;;11.52;64.53
49515;BME280;35415;47.870;16.058;2023-04-25T12:34:18;96520.69;;;11.47;65.74
49515;BME280;35415;47.870;16.058;2023-04-25T12:36:46;96515.66;;;11.40;65.36
49515;BME280;35415;47.870;16.058;2023-04-25T12:39:17;96481.31;;;11.13;64.25
49515;BME280;35415;47.870;16.058;2023-04-25T12:41:46;96477.03;;;11.12;66.02
49515;BME280;35415;47.870;16.058;2023-04-25T12:44:14;96507.72;;;11.30;65.60
49515;BME280;35415;47.870;16.058;2023-04-25T12:46:43;96476.44;;;11.15;64.80
49515;BME280;35415;47.870;16.058;2023-04-25T12:49:10;96498.28;;;11.33;65.52
49515;BME280;35415;47.870;16.058;2023-04-25T12:51:38;96494.47;;;11.34;65.17
49515;BME280;35415;47.870;16.058;2023-04-25T12:54:07;96464.50;;;11.22;66.81
49515;BME280;35415;47.870;16.058;2023-04-25T12:56:35;96459.47;;;11.34;67.78
49515;BME280;35415;47.870;16.058;2023-04-25T12:59:03;96469.34;;;11.57;67.30
49515;BME280;35415;47.870;16.058;2023-04-25T13:01:31;96467.53;;;11.71;66.81
49515;BME280;35415;47.870;16.058;2023-04-25T13:04:00;96464.00;;;11.90;68.06
49515;BME280;35415;47.870;16.058;2023-04-25T13:06:27;96452.69;;;12.07;66.51